Fairview Crossroads, South Carolina
Current Conditions -  °F | °C
As of 9:56 PM on Friday 28 Nov 2014 (Local Time) from KCAE Reporting Station
Clear Clear  
Wind Chill: 33°   Ceiling: Unl
Heat Index: 33°   Visibility: 8mi
Dew Point: 28°   Wind: 0mph
Humidity: 82%   Direction: NA
Pressure: 30.33"   Gusts: NA
Location:  33.8822°N, 81.433°W
Report Text: KCAE 290256Z 00000KT 8SM CLR 01/M02 A3033 RMK AO2 SLP271 T00061022 50001
Loading
Personal Weather Stations






























Interactive Weather Map New forecast layout! Learn more

10-Day Weather Forecast

Advertisements
Track Severe Weather on mobile